createdAt,value
2017-05-17T00:00:08.160Z,1018.18
2017-05-17T00:01:08.167Z,1018.18
2017-05-17T00:02:08.179Z,1018.19
2017-05-17T00:03:08.184Z,1018.14
2017-05-17T00:04:08.191Z,1018.17
2017-05-17T00:05:08.199Z,1018.16
2017-05-17T00:06:08.207Z,1018.14
2017-05-17T00:07:08.216Z,1018.14
2017-05-17T00:08:08.221Z,1018.11
2017-05-17T00:09:08.232Z,1018.09
2017-05-17T00:10:08.239Z,1018.07
2017-05-17T00:11:08.247Z,1018.1
2017-05-17T00:12:08.255Z,1018.1
2017-05-17T00:13:08.262Z,1018.05
2017-05-17T00:14:08.271Z,1018.06
2017-05-17T00:15:08.278Z,1018.06
2017-05-17T00:16:08.285Z,1018.08
2017-05-17T00:17:08.294Z,1018.01
2017-05-17T00:18:08.353Z,1018.02
2017-05-17T00:19:08.309Z,1018.05
2017-05-17T00:20:08.317Z,1017.98
2017-05-17T00:21:08.326Z,1017.99
2017-05-17T00:22:08.333Z,1017.97
2017-05-17T00:23:08.343Z,1018
2017-05-17T00:24:08.349Z,1018.02
2017-05-17T00:25:08.358Z,1017.97
2017-05-17T00:26:08.364Z,1017.96
2017-05-17T00:27:08.373Z,1017.97
2017-05-17T00:28:08.382Z,1017.97
2017-05-17T00:29:08.390Z,1017.94
2017-05-17T00:30:08.446Z,1017.91
2017-05-17T00:31:08.404Z,1017.97
2017-05-17T00:32:08.413Z,1017.94
2017-05-17T00:33:08.420Z,1017.92
2017-05-17T00:34:08.428Z,1017.92
2017-05-17T00:35:08.438Z,1017.92
2017-05-17T00:36:08.445Z,1017.91
2017-05-17T00:37:08.452Z,1017.92
2017-05-17T00:38:08.461Z,1017.91
2017-05-17T00:39:08.467Z,1017.87
2017-05-17T00:40:08.478Z,1017.87
2017-05-17T00:41:08.484Z,1017.85
2017-05-17T00:42:08.492Z,1017.83
2017-05-17T00:43:08.550Z,1017.82
2017-05-17T00:44:08.559Z,1017.84
2017-05-17T00:45:08.515Z,1017.82
2017-05-17T00:46:08.524Z,1017.8
2017-05-17T00:47:08.530Z,1017.82
2017-05-17T00:48:08.540Z,1017.81
2017-05-17T00:49:08.547Z,1017.82
2017-05-17T00:50:08.555Z,1017.8
2017-05-17T00:51:08.564Z,1017.79
2017-05-17T00:52:08.574Z,1017.76
2017-05-17T00:53:08.577Z,1017.77
2017-05-17T00:54:08.587Z,1017.74
2017-05-17T00:55:08.594Z,1017.72
2017-05-17T00:56:08.601Z,1017.72
2017-05-17T00:57:08.659Z,1017.71
2017-05-17T00:58:08.617Z,1017.71
2017-05-17T00:59:08.626Z,1017.7
2017-05-17T01:00:08.633Z,1017.7
2017-05-17T01:01:08.641Z,1017.68
2017-05-17T01:02:08.651Z,1017.62
2017-05-17T01:03:08.658Z,1017.64
2017-05-17T01:04:08.666Z,1017.65
2017-05-17T01:05:08.674Z,1017.66
2017-05-17T01:06:08.681Z,1017.62
2017-05-17T01:07:08.689Z,1017.54
2017-05-17T01:08:08.698Z,1017.61
2017-05-17T01:09:08.704Z,1017.58
2017-05-17T01:10:08.712Z,1017.59
2017-05-17T01:11:08.720Z,1017.55
2017-05-17T01:12:08.731Z,1017.5
2017-05-17T01:13:08.736Z,1017.53
2017-05-17T01:14:08.745Z,1017.53
2017-05-17T01:15:08.753Z,1017.54
2017-05-17T01:16:08.762Z,1017.53
2017-05-17T01:17:08.769Z,1017.5
2017-05-17T01:18:08.775Z,1017.51
2017-05-17T01:19:08.786Z,1017.47
2017-05-17T01:20:08.793Z,1017.5
2017-05-17T01:21:08.798Z,1017.44
2017-05-17T01:22:08.808Z,1017.44
2017-05-17T01:23:08.817Z,1017.45
2017-05-17T01:24:08.824Z,1017.42
2017-05-17T01:25:08.881Z,1017.44
2017-05-17T01:26:08.841Z,1017.45
2017-05-17T01:27:08.898Z,1017.47
2017-05-17T01:28:08.854Z,1017.42
2017-05-17T01:29:08.864Z,1017.43
2017-05-17T01:30:08.871Z,1017.46
2017-05-17T01:31:08.879Z,1017.43
2017-05-17T01:32:08.886Z,1017.42
2017-05-17T01:33:08.896Z,1017.43
2017-05-17T01:34:08.903Z,1017.42
2017-05-17T01:35:08.910Z,1017.41
2017-05-17T01:36:08.917Z,1017.41
2017-05-17T01:37:08.926Z,1017.37
2017-05-17T01:38:08.936Z,1017.34
2017-05-17T01:39:08.943Z,1017.38
2017-05-17T01:40:08.949Z,1017.32
2017-05-17T01:41:08.959Z,1017.35
2017-05-17T01:42:08.966Z,1017.33
2017-05-17T01:43:08.973Z,1017.33
2017-05-17T01:44:08.982Z,1017.32
2017-05-17T01:45:08.990Z,1017.32
2017-05-17T01:46:09.046Z,1017.28
2017-05-17T01:47:09.007Z,1017.28
2017-05-17T01:48:09.063Z,1017.26
2017-05-17T01:49:09.019Z,1017.26
2017-05-17T01:50:09.028Z,1017.28
2017-05-17T01:51:09.038Z,1017.24
2017-05-17T01:52:09.046Z,1017.27
2017-05-17T01:53:09.103Z,1017.26
2017-05-17T01:54:09.060Z,1017.24
2017-05-17T01:55:09.068Z,1017.23
2017-05-17T01:56:09.127Z,1017.22
2017-05-17T01:57:09.083Z,1017.23
2017-05-17T01:58:09.092Z,1017.22
2017-05-17T01:59:09.098Z,1017.23
2017-05-17T02:00:09.108Z,1017.2
2017-05-17T02:01:09.115Z,1017.21
2017-05-17T02:02:09.122Z,1017.22
2017-05-17T02:03:09.130Z,1017.18
2017-05-17T02:04:09.139Z,1017.17
2017-05-17T02:05:09.151Z,1017.17
2017-05-17T02:06:09.155Z,1017.16
2017-05-17T02:07:09.164Z,1017.15
2017-05-17T02:08:09.170Z,1017.15
2017-05-17T02:09:09.179Z,1017.15
2017-05-17T02:10:09.187Z,1017.12
2017-05-17T02:11:09.196Z,1017.12
2017-05-17T02:12:09.200Z,1017.15
2017-05-17T02:13:09.210Z,1017.13
2017-05-17T02:14:09.218Z,1017.1
2017-05-17T02:15:09.225Z,1017.1
2017-05-17T02:16:09.233Z,1017.09
2017-05-17T02:17:09.241Z,1017.1
2017-05-17T02:18:09.250Z,1017.08
2017-05-17T02:19:09.257Z,1017.06
2017-05-17T02:20:09.265Z,1017.07
2017-05-17T02:21:09.274Z,1017.08
2017-05-17T02:22:09.282Z,1017.03
2017-05-17T02:23:09.342Z,1017.01
2017-05-17T02:24:09.296Z,1017
2017-05-17T02:25:09.305Z,1016.99
2017-05-17T02:26:09.364Z,1017.02
2017-05-17T02:27:09.320Z,1016.96
2017-05-17T02:28:09.328Z,1016.98
2017-05-17T02:29:09.334Z,1016.95
2017-05-17T02:30:09.343Z,1016.98
2017-05-17T02:31:09.351Z,1016.96
2017-05-17T02:32:09.360Z,1016.93
2017-05-17T02:33:09.369Z,1016.93
2017-05-17T02:34:09.377Z,1016.96
2017-05-17T02:35:09.383Z,1016.93
2017-05-17T02:36:09.392Z,1016.96
2017-05-17T02:37:09.399Z,1016.94
2017-05-17T02:38:09.407Z,1016.96
2017-05-17T02:39:09.415Z,1016.9
2017-05-17T02:40:09.423Z,1016.93
2017-05-17T02:41:09.430Z,1016.89
2017-05-17T02:42:09.438Z,1016.89
2017-05-17T02:43:09.446Z,1016.9
2017-05-17T02:44:09.454Z,1016.88
2017-05-17T02:45:09.462Z,1016.85
2017-05-17T02:46:09.468Z,1016.86
2017-05-17T02:47:09.478Z,1016.84
2017-05-17T02:48:09.485Z,1016.87
2017-05-17T02:49:09.544Z,1016.85
2017-05-17T02:50:09.501Z,1016.83
2017-05-17T02:51:09.560Z,1016.81
2017-05-17T02:52:09.518Z,1016.83
2017-05-17T02:53:09.526Z,1016.81
2017-05-17T02:54:09.584Z,1016.83
2017-05-17T02:55:09.593Z,1016.81
2017-05-17T02:56:09.549Z,1016.81
2017-05-17T02:57:09.557Z,1016.79
2017-05-17T02:58:09.645Z,1016.79
2017-05-17T02:59:09.572Z,1016.81
2017-05-17T03:00:09.582Z,1016.78
2017-05-17T03:01:09.590Z,1016.78
2017-05-17T03:02:09.597Z,1016.78
2017-05-17T03:03:09.604Z,1016.79
2017-05-17T03:04:09.613Z,1016.77
2017-05-17T03:05:09.621Z,1016.76
2017-05-17T03:06:09.679Z,1016.74
2017-05-17T03:07:09.636Z,1016.79
2017-05-17T03:08:09.646Z,1016.79
2017-05-17T03:09:09.653Z,1016.78
2017-05-17T03:10:09.660Z,1016.72
2017-05-17T03:11:09.667Z,1016.75
2017-05-17T03:12:09.675Z,1016.71
2017-05-17T03:13:09.736Z,1016.71
2017-05-17T03:14:09.691Z,1016.73
2017-05-17T03:15:09.700Z,1016.71
2017-05-17T03:16:09.709Z,1016.67
2017-05-17T03:17:09.716Z,1016.69
2017-05-17T03:18:09.724Z,1016.67
2017-05-17T03:19:09.731Z,1016.68
2017-05-17T03:20:09.739Z,1016.66
2017-05-17T03:21:09.796Z,1016.64
2017-05-17T03:22:09.804Z,1016.64
2017-05-17T03:23:09.763Z,1016.64
2017-05-17T03:24:09.769Z,1016.6
2017-05-17T03:25:09.777Z,1016.59
2017-05-17T03:26:09.787Z,1016.59
2017-05-17T03:27:09.795Z,1016.57
2017-05-17T03:28:09.851Z,1016.55
2017-05-17T03:29:09.810Z,1016.56
2017-05-17T03:30:09.816Z,1016.57
2017-05-17T03:31:09.875Z,1016.53
2017-05-17T03:32:09.833Z,1016.56
2017-05-17T03:33:09.842Z,1016.53
2017-05-17T03:34:09.850Z,1016.55
2017-05-17T03:35:09.857Z,1016.57
2017-05-17T03:36:09.867Z,1016.56
2017-05-17T03:37:09.873Z,1016.53
2017-05-17T03:38:09.881Z,1016.52
2017-05-17T03:39:09.889Z,1016.55
2017-05-17T03:40:09.896Z,1016.53
2017-05-17T03:41:09.904Z,1016.58
2017-05-17T03:42:09.912Z,1016.53
2017-05-17T03:43:09.917Z,1016.55
2017-05-17T03:44:09.926Z,1016.58
2017-05-17T03:45:09.935Z,1016.56
2017-05-17T03:46:09.943Z,1016.57
2017-05-17T03:47:09.950Z,1016.57
2017-05-17T03:48:09.959Z,1016.54
2017-05-17T03:49:10.016Z,1016.59
2017-05-17T03:50:09.974Z,1016.55
2017-05-17T03:51:09.982Z,1016.55
2017-05-17T03:52:09.990Z,1016.54
2017-05-17T03:53:09.999Z,1016.53
2017-05-17T03:54:10.006Z,1016.53
2017-05-17T03:55:10.014Z,1016.54
2017-05-17T03:56:10.023Z,1016.55
2017-05-17T03:57:10.030Z,1016.57
2017-05-17T03:58:10.086Z,1016.52
2017-05-17T03:59:10.044Z,1016.53
2017-05-17T04:00:10.053Z,1016.53
2017-05-17T04:01:10.060Z,1016.56
2017-05-17T04:02:10.067Z,1016.51
2017-05-17T04:03:10.078Z,1016.56
2017-05-17T04:04:10.085Z,1016.53
2017-05-17T04:05:10.091Z,1016.58
2017-05-17T04:06:10.150Z,1016.57
2017-05-17T04:07:10.108Z,1016.51
2017-05-17T04:08:10.117Z,1016.56
2017-05-17T04:09:10.123Z,1016.5
2017-05-17T04:10:10.132Z,1016.5
2017-05-17T04:11:10.140Z,1016.5
2017-05-17T04:12:10.149Z,1016.47
2017-05-17T04:13:10.154Z,1016.49
2017-05-17T04:14:10.164Z,1016.47
2017-05-17T04:15:10.174Z,1016.5
2017-05-17T04:16:10.179Z,1016.51
2017-05-17T04:17:10.186Z,1016.48
2017-05-17T04:18:10.195Z,1016.51
2017-05-17T04:19:10.202Z,1016.49
2017-05-17T04:20:10.210Z,1016.46
2017-05-17T04:21:10.219Z,1016.48
2017-05-17T04:22:10.226Z,1016.49
2017-05-17T04:23:10.235Z,1016.48
2017-05-17T04:24:10.242Z,1016.47
2017-05-17T04:25:10.250Z,1016.47
2017-05-17T04:26:10.258Z,1016.46
2017-05-17T04:27:10.316Z,1016.47
2017-05-17T04:28:10.274Z,1016.43
2017-05-17T04:29:10.282Z,1016.39
2017-05-17T04:30:10.291Z,1016.4
2017-05-17T04:31:10.296Z,1016.42
2017-05-17T04:32:10.305Z,1016.4
2017-05-17T04:33:10.346Z,1016.39
2017-05-17T04:34:10.371Z,1016.37
2017-05-17T04:35:10.329Z,1016.4
2017-05-17T04:36:10.337Z,1016.34
2017-05-17T04:37:10.345Z,1016.34
2017-05-17T04:38:10.352Z,1016.34
2017-05-17T04:39:10.360Z,1016.33
2017-05-17T04:40:10.368Z,1016.36
2017-05-17T04:41:10.376Z,1016.3
2017-05-17T04:42:10.384Z,1016.32
2017-05-17T04:43:10.393Z,1016.31
2017-05-17T04:44:10.400Z,1016.31
2017-05-17T04:45:10.408Z,1016.31
2017-05-17T04:46:10.716Z,1016.32
2017-05-17T04:47:10.424Z,1016.32
2017-05-17T04:48:10.431Z,1016.31
2017-05-17T04:49:10.439Z,1016.29
2017-05-17T04:50:10.447Z,1016.33
2017-05-17T04:51:10.455Z,1016.33
2017-05-17T04:52:10.764Z,1016.28
2017-05-17T04:53:10.471Z,1016.32
2017-05-17T04:54:10.478Z,1016.29
2017-05-17T04:55:10.487Z,1016.3
2017-05-17T04:56:10.495Z,1016.34
2017-05-17T04:57:10.501Z,1016.33
2017-05-17T04:58:10.560Z,1016.26
2017-05-17T04:59:10.518Z,1016.27
2017-05-17T05:00:10.525Z,1016.32
2017-05-17T05:01:10.534Z,1016.26
2017-05-17T05:02:10.590Z,1016.24
2017-05-17T05:03:10.549Z,1016.23
2017-05-17T05:04:10.601Z,1016.22
2017-05-17T05:05:10.564Z,1016.21
2017-05-17T05:06:10.573Z,1016.23
2017-05-17T05:07:10.588Z,1016.21
2017-05-17T05:08:10.589Z,1016.23
2017-05-17T05:09:10.596Z,1016.22
2017-05-17T05:10:10.605Z,1016.21
2017-05-17T05:11:10.612Z,1016.19
2017-05-17T05:12:10.621Z,1016.18
2017-05-17T05:13:10.629Z,1016.15
2017-05-17T05:14:10.637Z,1016.14
2017-05-17T05:15:10.643Z,1016.16
2017-05-17T05:16:10.653Z,1016.11
2017-05-17T05:17:10.660Z,1016.13
2017-05-17T05:18:10.668Z,1016.12
2017-05-17T05:19:10.676Z,1016.07
2017-05-17T05:20:10.684Z,1016.12
2017-05-17T05:21:10.692Z,1016.11
2017-05-17T05:22:10.699Z,1016.14
2017-05-17T05:23:10.857Z,1016.13
2017-05-17T05:24:10.718Z,1016.17
2017-05-17T05:25:10.725Z,1016.16
2017-05-17T05:26:10.732Z,1016.13
2017-05-17T05:27:10.740Z,1016.17
2017-05-17T05:28:10.750Z,1016.18
2017-05-17T05:29:10.755Z,1016.15
2017-05-17T05:30:10.763Z,1016.13
2017-05-17T05:31:10.771Z,1016.12
2017-05-17T05:32:10.780Z,1016.13
2017-05-17T05:33:10.788Z,1016.12
2017-05-17T05:34:10.847Z,1016.09
2017-05-17T05:35:10.803Z,1016.1
2017-05-17T05:36:10.812Z,1016.1
2017-05-17T05:37:10.818Z,1016.09
2017-05-17T05:38:10.832Z,1016.07
2017-05-17T05:39:10.837Z,1016.03
2017-05-17T05:40:10.844Z,1016.04
2017-05-17T05:41:10.852Z,1016.08
2017-05-17T05:42:10.860Z,1016.06
2017-05-17T05:43:10.870Z,1016.11
2017-05-17T05:44:10.876Z,1016.15
2017-05-17T05:45:10.884Z,1016.28
2017-05-17T05:46:10.893Z,1016.18
2017-05-17T05:47:10.902Z,1016.08
2017-05-17T05:48:10.909Z,1016.43
2017-05-17T05:49:10.917Z,1016.69
2017-05-17T05:50:10.927Z,1016.74
2017-05-17T05:51:10.934Z,1016.73
2017-05-17T05:52:10.944Z,1016.8
2017-05-17T05:53:10.953Z,1016.82
2017-05-17T05:54:10.962Z,1016.85
2017-05-17T05:55:10.972Z,1016.88
2017-05-17T05:56:10.979Z,1016.86
2017-05-17T05:57:10.989Z,1016.91
2017-05-17T05:58:11.000Z,1016.88
2017-05-17T05:59:11.010Z,1016.93
2017-05-17T06:00:11.019Z,1016.93
2017-05-17T06:01:11.028Z,1016.89
2017-05-17T06:02:11.038Z,1016.9
2017-05-17T06:03:11.047Z,1016.97
2017-05-17T06:04:11.058Z,1016.93
2017-05-17T06:05:11.073Z,1016.95
2017-05-17T06:06:11.076Z,1016.98
2017-05-17T06:07:11.087Z,1016.93
2017-05-17T06:08:11.098Z,1016.95
2017-05-17T06:09:11.106Z,1017.03
2017-05-17T06:10:11.117Z,1017.03
2017-05-17T06:11:11.128Z,1017.06
2017-05-17T06:12:11.188Z,1017.08
2017-05-17T06:13:11.152Z,1017.07
2017-05-17T06:14:11.159Z,1017.12
2017-05-17T06:15:11.170Z,1017.14
2017-05-17T06:16:11.179Z,1017.13
2017-05-17T06:17:11.190Z,1017.16
2017-05-17T06:18:11.203Z,1017.17
2017-05-17T06:19:11.213Z,1017.18
2017-05-17T06:20:11.222Z,1017.19
2017-05-17T06:21:11.285Z,1017.2
2017-05-17T06:22:11.245Z,1017.05
2017-05-17T06:23:11.257Z,1017.08
2017-05-17T06:24:11.267Z,1017.16
2017-05-17T06:25:11.279Z,1017.17
2017-05-17T06:26:11.289Z,1017.16
2017-05-17T06:27:11.303Z,1017.21
2017-05-17T06:28:11.312Z,1017.2
2017-05-17T06:29:11.324Z,1017.19
2017-05-17T06:30:11.335Z,1017.19
2017-05-17T06:31:11.345Z,1017.2
2017-05-17T06:32:11.356Z,1017.23
2017-05-17T06:33:11.419Z,1017.28
2017-05-17T06:34:11.383Z,1017.16
2017-05-17T06:35:11.393Z,1017.19
2017-05-17T06:36:11.405Z,1017.16
2017-05-17T06:37:11.415Z,1017.07
2017-05-17T06:38:11.428Z,1017.03
2017-05-17T06:39:11.439Z,1017.07
2017-05-17T06:40:11.450Z,1017.29
2017-05-17T06:41:11.462Z,1017.43
2017-05-17T06:42:11.473Z,1017.51
2017-05-17T06:43:11.485Z,1017.56
2017-05-17T06:44:11.497Z,1017.58
2017-05-17T06:45:11.508Z,1017.63
2017-05-17T06:46:11.570Z,1017.6
2017-05-17T06:47:11.530Z,1017.55
2017-05-17T06:48:11.544Z,1017.38
2017-05-17T06:49:11.607Z,1017.32
2017-05-17T06:50:11.568Z,1017.28
2017-05-17T06:51:11.579Z,1017.55
2017-05-17T06:52:11.641Z,1017.62
2017-05-17T06:53:11.602Z,1017.54
2017-05-17T06:54:11.668Z,1017.47
2017-05-17T06:55:11.627Z,1017.6
2017-05-17T06:56:11.639Z,1017.77
2017-05-17T06:57:11.649Z,1017.68
2017-05-17T06:58:11.664Z,1017.6
2017-05-17T06:59:11.673Z,1017.56
2017-05-17T07:00:11.736Z,1017.46
2017-05-17T07:01:11.703Z,1017.46
2017-05-17T07:02:11.711Z,1017.45
2017-05-17T07:03:11.722Z,1017.43
2017-05-17T07:04:11.734Z,1017.34
2017-05-17T07:05:11.746Z,1017.32
2017-05-17T07:06:11.758Z,1017.46
2017-05-17T07:07:11.772Z,1017.47
2017-05-17T07:08:11.782Z,1017.42
2017-05-17T07:09:11.794Z,1017.39
2017-05-17T07:10:11.857Z,1017.37
2017-05-17T07:11:11.819Z,1017.42
2017-05-17T07:12:11.831Z,1017.35
2017-05-17T07:13:11.844Z,1017.33
2017-05-17T07:14:11.855Z,1017.27
2017-05-17T07:15:11.867Z,1017.17
2017-05-17T07:16:11.879Z,1017.23
2017-05-17T07:17:11.891Z,1017.21
2017-05-17T07:18:11.905Z,1017.21
2017-05-17T07:19:11.916Z,1017.09
2017-05-17T07:20:11.930Z,1017.15
2017-05-17T07:21:11.941Z,1017.11
2017-05-17T07:22:11.955Z,1017.04
2017-05-17T07:23:11.966Z,1017.02
2017-05-17T07:24:12.030Z,1016.95
2017-05-17T07:25:11.991Z,1016.91
2017-05-17T07:26:12.003Z,1017.05
2017-05-17T07:27:12.066Z,1016.96
2017-05-17T07:28:12.027Z,1016.73
2017-05-17T07:29:12.045Z,1016.47
2017-05-17T07:30:12.052Z,1016.08
2017-05-17T07:31:12.065Z,1015.76
2017-05-17T07:32:12.077Z,1015.75
2017-05-17T07:33:12.085Z,1015.74
2017-05-17T07:34:12.097Z,1015.71
2017-05-17T07:35:12.109Z,1015.6
2017-05-17T07:36:12.120Z,1015.66
2017-05-17T07:37:12.130Z,1015.65
2017-05-17T07:38:12.139Z,1015.67
2017-05-17T07:39:12.149Z,1015.68
2017-05-17T07:40:12.164Z,1015.61
2017-05-17T07:41:12.217Z,1015.58
2017-05-17T07:42:12.176Z,1015.57
2017-05-17T07:43:12.187Z,1015.56
2017-05-17T07:44:12.197Z,1015.54
2017-05-17T07:45:12.204Z,1015.66
2017-05-17T07:46:12.215Z,1015.55
2017-05-17T07:47:12.225Z,1015.62
2017-05-17T07:48:12.232Z,1015.64
2017-05-17T07:49:12.241Z,1015.55
2017-05-17T07:50:12.252Z,1015.56
2017-05-17T07:51:12.262Z,1015.56
2017-05-17T07:52:12.319Z,1015.57
2017-05-17T07:53:12.277Z,1015.56
2017-05-17T07:54:12.287Z,1015.53
2017-05-17T07:55:12.295Z,1015.5
2017-05-17T07:56:12.351Z,1015.46
2017-05-17T07:57:12.313Z,1015.48
2017-05-17T07:58:12.325Z,1015.45
2017-05-17T07:59:12.332Z,1015.49
2017-05-17T08:00:12.341Z,1015.46
2017-05-17T08:01:12.351Z,1015.45
2017-05-17T08:02:12.408Z,1015.46
2017-05-17T08:03:12.369Z,1015.47
2017-05-17T08:04:12.378Z,1015.37
2017-05-17T08:05:12.385Z,1015.37
2017-05-17T08:06:12.394Z,1015.39
2017-05-17T08:07:12.403Z,1015.44
2017-05-17T08:08:12.414Z,1015.35
2017-05-17T08:09:12.422Z,1015.33
2017-05-17T08:10:12.430Z,1015.33
2017-05-17T08:11:12.440Z,1015.28
2017-05-17T08:12:12.447Z,1015.34
2017-05-17T08:13:12.457Z,1015.37
2017-05-17T08:14:12.464Z,1015.28
2017-05-17T08:15:12.473Z,1015.25
2017-05-17T08:16:12.482Z,1015.25
2017-05-17T08:17:12.490Z,1015.28
2017-05-17T08:18:12.500Z,1015.25
2017-05-17T08:19:12.508Z,1015.28
2017-05-17T08:20:12.518Z,1015.26
2017-05-17T08:21:12.525Z,1015.24
2017-05-17T08:22:12.535Z,1015.18
2017-05-17T08:23:12.544Z,1015.26
2017-05-17T08:24:12.553Z,1015.19
2017-05-17T08:25:12.562Z,1015.23
2017-05-17T08:26:12.569Z,1015.15
2017-05-17T08:27:12.578Z,1015.16
2017-05-17T08:28:12.586Z,1015.17
2017-05-17T08:29:12.595Z,1015.11
2017-05-17T08:30:12.604Z,1015.12
2017-05-17T08:31:12.613Z,1015.07
2017-05-17T08:32:12.621Z,1015.12
2017-05-17T08:33:12.630Z,1015.09
2017-05-17T08:34:12.639Z,1015.08
2017-05-17T08:35:12.648Z,1015.05
2017-05-17T08:36:12.656Z,1015.04
2017-05-17T08:37:12.665Z,1015.04
2017-05-17T08:38:12.673Z,1015.01
2017-05-17T08:39:12.682Z,1015.01
2017-05-17T08:40:12.690Z,1015
2017-05-17T08:41:12.699Z,1015.02
2017-05-17T08:42:12.709Z,1014.99
2017-05-17T08:43:12.716Z,1014.93
2017-05-17T08:44:12.725Z,1014.94
2017-05-17T08:45:12.734Z,1014.97
2017-05-17T08:46:12.744Z,1015
2017-05-17T08:47:12.751Z,1014.94
2017-05-17T08:48:12.762Z,1014.88
2017-05-17T08:49:12.769Z,1014.91
2017-05-17T08:50:12.777Z,1014.87
2017-05-17T08:51:12.785Z,1014.91
2017-05-17T08:52:12.797Z,1014.91
2017-05-17T08:53:12.804Z,1014.9
2017-05-17T08:54:12.813Z,1014.85
2017-05-17T08:55:12.819Z,1014.89
2017-05-17T08:56:12.832Z,1014.83
2017-05-17T08:57:12.840Z,1014.8
2017-05-17T08:58:12.848Z,1014.82
2017-05-17T08:59:12.856Z,1014.88
2017-05-17T09:00:12.866Z,1014.74
2017-05-17T09:01:12.873Z,1014.81
2017-05-17T09:02:12.884Z,1014.77
2017-05-17T09:03:12.893Z,1014.75
2017-05-17T09:04:12.902Z,1014.79
2017-05-17T09:05:12.910Z,1014.78
2017-05-17T09:06:12.917Z,1014.79
2017-05-17T09:07:12.929Z,1014.73
2017-05-17T09:08:12.936Z,1014.72
2017-05-17T09:09:12.945Z,1014.73
2017-05-17T09:10:12.954Z,1014.69
2017-05-17T09:11:12.961Z,1014.7
2017-05-17T09:12:12.971Z,1014.69
2017-05-17T09:13:12.981Z,1014.67
2017-05-17T09:14:12.990Z,1014.63
2017-05-17T09:15:12.998Z,1014.6
2017-05-17T09:16:13.008Z,1014.58
2017-05-17T09:17:13.015Z,1014.58
2017-05-17T09:18:13.023Z,1014.58
2017-05-17T09:19:13.032Z,1014.58
2017-05-17T09:20:13.039Z,1014.56
2017-05-17T09:21:13.049Z,1014.54
2017-05-17T09:22:13.058Z,1014.48
2017-05-17T09:23:13.065Z,1014.52
2017-05-17T09:24:13.075Z,1014.54
2017-05-17T09:25:13.133Z,1014.5
2017-05-17T09:26:13.093Z,1014.48
2017-05-17T09:27:13.101Z,1014.5
2017-05-17T09:28:13.110Z,1014.49
2017-05-17T09:29:13.119Z,1014.44
2017-05-17T09:30:13.126Z,1014.46
2017-05-17T09:31:13.133Z,1014.43
2017-05-17T09:32:13.143Z,1014.35
2017-05-17T09:33:13.154Z,1014.38
2017-05-17T09:34:13.166Z,1014.32
2017-05-17T09:35:13.170Z,1014.39
2017-05-17T09:36:13.179Z,1014.29
2017-05-17T09:37:13.189Z,1014.3
2017-05-17T09:38:13.197Z,1014.28
2017-05-17T09:39:13.205Z,1014.3
2017-05-17T09:40:13.215Z,1014.28
2017-05-17T09:41:13.223Z,1014.18
2017-05-17T09:42:13.232Z,1014.27
2017-05-17T09:43:13.240Z,1014.3
2017-05-17T09:44:13.249Z,1014.29
2017-05-17T09:45:13.258Z,1014.31
2017-05-17T09:46:13.266Z,1014.25
2017-05-17T09:47:13.276Z,1014.18
2017-05-17T09:48:13.286Z,1014.16
2017-05-17T09:49:13.292Z,1014.06
2017-05-17T09:50:13.302Z,1014.11
2017-05-17T09:51:13.309Z,1014.09
2017-05-17T09:52:13.317Z,1014.07
2017-05-17T09:53:13.329Z,1014.05
2017-05-17T09:54:13.336Z,1014.01
2017-05-17T09:55:13.346Z,1013.97
2017-05-17T09:56:13.353Z,1013.97
2017-05-17T09:57:13.363Z,1013.99
2017-05-17T09:58:13.371Z,1014
2017-05-17T09:59:13.380Z,1013.96
2017-05-17T10:00:13.391Z,1013.92
2017-05-17T10:01:13.396Z,1013.9
2017-05-17T10:02:13.405Z,1013.86
2017-05-17T10:03:13.414Z,1013.83
2017-05-17T10:04:13.419Z,1013.84
2017-05-17T10:05:13.429Z,1013.86
2017-05-17T10:06:13.438Z,1013.88
2017-05-17T10:07:13.444Z,1013.83
2017-05-17T10:08:13.454Z,1013.82
2017-05-17T10:09:13.460Z,1013.81
2017-05-17T10:10:13.472Z,1013.82
2017-05-17T10:11:13.528Z,1013.74
2017-05-17T10:12:13.488Z,1013.72
2017-05-17T10:13:13.499Z,1013.7
2017-05-17T10:14:13.502Z,1013.71
2017-05-17T10:15:13.513Z,1013.66
2017-05-17T10:16:13.521Z,1013.76
2017-05-17T10:17:13.531Z,1013.62
2017-05-17T10:18:13.538Z,1013.66
2017-05-17T10:19:13.553Z,1013.6
2017-05-17T10:20:13.556Z,1013.63
2017-05-17T10:21:13.565Z,1013.55
2017-05-17T10:22:13.574Z,1013.49
2017-05-17T10:23:13.582Z,1013.44
2017-05-17T10:24:13.591Z,1013.46
2017-05-17T10:25:13.598Z,1013.47
2017-05-17T10:26:13.608Z,1013.51
2017-05-17T10:27:13.617Z,1013.46
2017-05-17T10:28:13.625Z,1013.44
2017-05-17T10:29:13.633Z,1013.43
2017-05-17T10:30:13.643Z,1013.32
2017-05-17T10:31:13.650Z,1013.38
2017-05-17T10:32:13.658Z,1013.36
2017-05-17T10:33:13.669Z,1013.33
2017-05-17T10:34:13.676Z,1013.28
2017-05-17T10:35:13.683Z,1013.27
2017-05-17T10:36:13.692Z,1013.24
2017-05-17T10:37:13.701Z,1013.17
2017-05-17T10:38:13.711Z,1013.22
2017-05-17T10:39:13.720Z,1013.26
2017-05-17T10:40:13.728Z,1013.15
2017-05-17T10:41:13.736Z,1013.15
2017-05-17T10:42:13.745Z,1013.08
2017-05-17T10:43:13.754Z,1013.05
2017-05-17T10:44:13.763Z,1013.1
2017-05-17T10:45:13.771Z,1013.03
2017-05-17T10:46:13.781Z,1013.03
2017-05-17T10:47:13.790Z,1013.03
2017-05-17T10:48:13.799Z,1013.02
2017-05-17T10:49:13.807Z,1012.94
2017-05-17T10:50:13.815Z,1012.92
2017-05-17T10:51:13.823Z,1013.04
2017-05-17T10:52:13.830Z,1012.97
2017-05-17T10:53:13.841Z,1012.93
2017-05-17T10:54:13.897Z,1012.89
2017-05-17T10:55:13.857Z,1012.9
2017-05-17T10:56:13.866Z,1012.96
2017-05-17T10:57:13.874Z,1012.92
2017-05-17T10:58:13.881Z,1012.92
2017-05-17T10:59:13.893Z,1012.89
2017-05-17T11:00:13.902Z,1012.91
2017-05-17T11:01:13.915Z,1012.83
2017-05-17T11:02:13.917Z,1012.78
2017-05-17T11:03:13.927Z,1012.69
2017-05-17T11:04:13.935Z,1012.72
2017-05-17T11:05:13.942Z,1012.68
2017-05-17T11:06:13.951Z,1012.73
2017-05-17T11:07:13.962Z,1012.73
2017-05-17T11:08:13.970Z,1012.7
2017-05-17T11:09:13.979Z,1012.73
2017-05-17T11:10:13.986Z,1012.76
2017-05-17T11:11:13.998Z,1012.74
2017-05-17T11:12:14.054Z,1012.66
2017-05-17T11:13:14.012Z,1012.58
2017-05-17T11:14:14.020Z,1012.66
2017-05-17T11:15:14.030Z,1012.62
2017-05-17T11:16:14.041Z,1012.6
2017-05-17T11:17:14.047Z,1012.62
2017-05-17T11:18:14.057Z,1012.56
2017-05-17T11:19:14.065Z,1012.58
2017-05-17T11:20:14.072Z,1012.65
2017-05-17T11:21:14.083Z,1012.53
2017-05-17T11:22:14.091Z,1012.53
2017-05-17T11:23:14.098Z,1012.52
2017-05-17T11:24:14.109Z,1012.48
2017-05-17T11:25:14.116Z,1012.57
2017-05-17T11:26:14.125Z,1012.5
2017-05-17T11:27:14.182Z,1012.54
2017-05-17T11:28:14.142Z,1012.51
2017-05-17T11:29:14.150Z,1012.47
2017-05-17T11:30:14.160Z,1012.53
2017-05-17T11:31:14.169Z,1012.54
2017-05-17T11:32:14.177Z,1012.38
2017-05-17T11:33:14.186Z,1012.39
2017-05-17T11:34:14.244Z,1012.52
2017-05-17T11:35:14.204Z,1012.47
2017-05-17T11:36:14.210Z,1012.43
2017-05-17T11:37:14.221Z,1012.38
2017-05-17T11:38:14.229Z,1012.39
2017-05-17T11:39:14.240Z,1012.38
2017-05-17T11:40:14.245Z,1012.34
2017-05-17T11:41:14.255Z,1012.39
2017-05-17T11:42:14.263Z,1012.24
2017-05-17T11:43:14.273Z,1012.41
2017-05-17T11:44:14.280Z,1012.31
2017-05-17T11:45:14.340Z,1012.21
2017-05-17T11:46:14.298Z,1012.2
2017-05-17T11:47:14.364Z,1012.13
2017-05-17T11:48:14.316Z,1012.1
2017-05-17T11:49:14.323Z,1012.18
2017-05-17T11:50:14.332Z,1012.11
2017-05-17T11:51:14.393Z,1012.06
2017-05-17T11:52:14.352Z,1012.11
2017-05-17T11:53:14.361Z,1012.13
2017-05-17T11:54:14.367Z,1012.07
2017-05-17T11:55:14.376Z,1012.01
2017-05-17T11:56:14.386Z,1012.01
2017-05-17T11:57:14.392Z,1011.99
2017-05-17T11:58:14.402Z,1011.96
2017-05-17T11:59:14.412Z,1011.97
2017-05-17T12:00:14.420Z,1012.05
2017-05-17T12:01:14.479Z,1012.01
2017-05-17T12:02:14.437Z,1011.97
2017-05-17T12:03:14.446Z,1011.98
2017-05-17T12:04:14.453Z,1011.92
2017-05-17T12:05:14.463Z,1011.95
2017-05-17T12:06:14.471Z,1011.91
2017-05-17T12:07:14.482Z,1011.93